Terminal Aerodrome Forecast
Issued by NWS Jacksonville, FL

Home | Current Version | Previous Version | Text Only | Print | Product List | Glossary On
Versions: 1 2 3 4 5 6 7 8 9 10 11 12 13 14 15 16 17 18 19 20 21 22 23 24 25
000
FTUS42 KJAX 270204 AAA
TAFSSI
TAF AMD
KSSI 270204Z 2702/2724 17006KT P6SM VCSH SCT005 BKN010 OVC090
     FM270700 20007KT P6SM BKN005 OVC012
     FM271300 23012G20KT P6SM VCSH SCT005 BKN015 OVC150
     FM271600 26014G23KT P6SM VCTS SCT015 BKN025CB OVC090 PROB30
      2716/2720 29015G30KT 3SM +TSRA BR SCT005 BKN020CB OVC050=

USA.gov is the U.S. government's official web portal to all federal, state and local government web resources and services.